WITT/BTJ METAR and TAF weather

Enter ICAO airport designator
Station Type Date Time Source
WITT METAR UTC NOAA

Error!


Station Type Date Time Source
WITT Decoded METAR UTC NOAA

Error!

Station Type Date Time Source
WITT TAF 2023/02/03 18:00 UTC NOAA

TAF WITT 031700Z 0318/0418 34007KT 9000 SCT018
TEMPO 0318/0319 -RA BKN08 PROB40
TEMPO 0403/0405 5000 RA FEW015CB BKN016

Example: see airport list